Time;durP1;ratioP1;P1;durP2;ratioP2;P2;SDS_P1;SDS_P2;PMS_P1;PMS_P2;Temp;Humidity;BMP_temperature;BMP_pressure;BME280_temperature;BME280_humidity;BME280_pressure;Samples;Min_cycle;Max_cycle;Signal;HPM_P1;HPM_P2
2022/04/17 00:00:27;;;;;;;7.70;4.47;;;;;;;;;;5084971;27;20421;-67
2022/04/17 00:02:54;;;;;;;6.30;4.40;;;;;;;;;;5087475;27;20440;-67
2022/04/17 00:05:20;;;;;;;7.95;4.57;;;;;;;;;;5043576;27;20485;-67
2022/04/17 00:07:46;;;;;;;7.55;4.75;;;;;;;;;;5077835;27;20428;-67
2022/04/17 00:10:12;;;;;;;7.78;4.68;;;7.60;99.90;;;;;;5088038;28;20416;-68
2022/04/17 00:12:39;;;;;;;8.53;4.40;;;7.70;99.90;;;;;;5087686;28;20479;-67
2022/04/17 00:15:05;;;;;;;6.47;4.53;;;;;;;;;;5069302;27;20424;-67
2022/04/17 00:17:31;;;;;;;7.37;4.97;;;7.60;99.90;;;;;;5068635;28;21023;-67
2022/04/17 00:19:58;;;;;;;7.35;4.32;;;;;;;;;;5056815;27;20688;-67
2022/04/17 00:22:24;;;;;;;7.57;4.78;;;;;;;;;;5053600;27;20428;-67
2022/04/17 00:24:50;;;;;;;7.95;4.70;;;;;;;;;;5061835;27;20412;-67
2022/04/17 00:27:16;;;;;;;8.40;4.97;;;7.60;99.90;;;;;;5070588;28;20436;-67
2022/04/17 00:29:44;;;;;;;7.73;4.70;;;7.90;99.90;;;;;;5037003;28;20426;-67
2022/04/17 00:32:10;;;;;;;7.43;4.53;;;;;;;;;;5077828;28;20519;-67
2022/04/17 00:34:37;;;;;;;7.97;4.77;;;;;;;;;;5051297;27;20435;-67
2022/04/17 00:37:04;;;;;;;8.07;5.00;;;7.60;99.90;;;;;;5070779;27;20420;-67
2022/04/17 00:39:30;;;;;;;8.20;5.13;;;;;;;;;;5071768;27;20427;-67
2022/04/17 00:41:56;;;;;;;7.28;4.97;;;;;;;;;;5073702;28;20424;-67
2022/04/17 00:44:22;;;;;;;8.00;5.30;;;;;;;;;;5074039;28;20937;-67
2022/04/17 00:46:49;;;;;;;7.78;5.40;;;;;;;;;;5075129;27;20439;-67
2022/04/17 00:49:15;;;;;;;7.35;4.97;;;;;;;;;;5058883;27;20427;-67
2022/04/17 00:51:42;;;;;;;8.30;5.43;;;;;;;;;;5056161;27;20420;-67
2022/04/17 00:54:09;;;;;;;8.73;5.30;;;;;;;;;;5052519;27;20446;-67
2022/04/17 00:56:35;;;;;;;8.75;5.20;;;7.40;99.90;;;;;;5068232;27;20408;-66
2022/04/17 00:59:06;;;;;;;8.30;5.63;;;;;;;;;;5069442;28;21317;-67
2022/04/17 01:01:33;;;;;;;8.23;5.22;;;;;;;;;;5075955;28;20583;-66
2022/04/17 01:03:59;;;;;;;8.43;5.47;;;;;;;;;;5053811;27;20432;-67
2022/04/17 01:06:29;;;;;;;8.05;5.25;;;;;;;;;;5063465;27;20897;-67
2022/04/17 01:08:55;;;;;;;9.00;5.50;;;;;;;;;;5061306;27;20429;-67
2022/04/17 01:11:21;;;;;;;8.63;5.45;;;;;;;;;;5056988;28;20433;-67
2022/04/17 01:13:48;;;;;;;8.37;5.67;;;;;;;;;;5074593;27;20420;-68
2022/04/17 01:16:17;;;;;;;7.50;5.55;;;;;;;;;;5073633;28;20431;-67
2022/04/17 01:19:02;;;;;;;8.82;5.65;;;;;;;;;;5071799;28;20476;-67
2022/04/17 01:21:29;;;;;;;9.07;5.50;;;;;;;;;;5067834;28;20432;-67
2022/04/17 01:26:56;;;;;;;9.18;5.70;;;;;;;;;;5064306;28;20412;-67
2022/04/17 01:29:23;;;;;;;8.83;5.90;;;;;;;;;;5076633;27;20428;-67
2022/04/17 01:31:49;;;;;;;8.38;6.03;;;;;;;;;;5039341;28;20424;-68
2022/04/17 01:34:16;;;;;;;8.32;5.88;;;;;;;;;;5066624;27;20489;-69
2022/04/17 01:36:45;;;;;;;8.43;6.00;;;6.70;99.90;;;;;;5071220;27;20431;-67
2022/04/17 01:39:12;;;;;;;9.15;6.45;;;;;;;;;;5065147;27;20441;-67
2022/04/17 01:41:38;;;;;;;8.45;5.68;;;;;;;;;;5075415;28;20446;-67
2022/04/17 01:44:05;;;;;;;9.13;6.22;;;;;;;;;;5071482;27;20520;-67
2022/04/17 01:46:31;;;;;;;9.07;6.45;;;;;;;;;;5068635;27;20862;-67
2022/04/17 01:48:57;;;;;;;8.55;5.95;;;6.70;99.90;;;;;;5066573;27;21009;-67
2022/04/17 01:51:23;;;;;;;8.27;5.97;;;;;;;;;;5053486;28;20491;-67
2022/04/17 01:53:49;;;;;;;8.57;6.05;;;;;;;;;;5071919;28;20420;-67
2022/04/17 01:56:15;;;;;;;8.07;5.95;;;;;;;;;;5062132;27;20424;-66
2022/04/17 01:58:41;;;;;;;9.53;6.47;;;;;;;;;;5067944;27;20906;-67
2022/04/17 02:01:07;;;;;;;8.63;6.60;;;;;;;;;;5052269;27;20438;-67
2022/04/17 02:03:34;;;;;;;9.48;6.40;;;;;;;;;;5077729;27;20424;-71
2022/04/17 02:06:00;;;;;;;9.57;6.63;;;;;;;;;;5064502;28;20428;-71
2022/04/17 02:08:29;;;;;;;8.90;6.28;;;;;;;;;;5063748;28;20724;-71
2022/04/17 02:10:56;;;;;;;9.80;6.80;;;;;;;;;;5063907;28;20427;-70
2022/04/17 02:13:23;;;;;;;9.90;6.55;;;;;;;;;;5071107;27;20407;-71
2022/04/17 02:15:53;;;;;;;8.35;6.50;;;6.20;99.90;;;;;;5064974;27;20420;-71
2022/04/17 02:18:24;;;;;;;9.02;6.43;;;;;;;;;;5065541;28;20496;-70
2022/04/17 02:20:50;;;;;;;9.20;6.35;;;;;;;;;;5039136;28;20426;-71
2022/04/17 02:23:16;;;;;;;10.05;6.80;;;;;;;;;;5051260;27;20440;-70
2022/04/17 02:25:42;;;;;;;10.52;6.65;;;;;;;;;;5063512;28;20449;-70
2022/04/17 02:28:09;;;;;;;9.88;6.65;;;;;;;;;;5072200;27;20448;-71
2022/04/17 02:30:35;;;;;;;9.45;6.80;;;;;;;;;;5071502;27;20416;-71
2022/04/17 02:33:02;;;;;;;11.05;6.75;;;;;;;;;;5073406;27;20431;-71
2022/04/17 02:35:29;;;;;;;9.20;6.35;;;;;;;;;;5065362;28;20413;-71
2022/04/17 02:37:54;;;;;;;10.93;7.03;;;6.00;99.90;;;;;;5068758;27;20420;-71
2022/04/17 02:40:20;;;;;;;10.60;6.90;;;;;;;;;;5044658;27;20431;-70
2022/04/17 02:42:47;;;;;;;13.57;7.15;;;;;;;;;;5051008;27;20421;-71
2022/04/17 02:45:14;;;;;;;9.23;6.65;;;;;;;;;;5068951;28;20422;-71
2022/04/17 02:47:43;;;;;;;9.90;6.78;;;;;;;;;;5049659;27;20919;-71
2022/04/17 02:50:09;;;;;;;10.00;7.10;;;;;;;;;;5075521;27;20423;-68
2022/04/17 02:52:35;;;;;;;9.68;7.00;;;;;;;;;;5108047;27;20431;-69
2022/04/17 02:55:01;;;;;;;11.18;6.97;;;;;;;;;;5052530;27;20425;-68
2022/04/17 02:57:28;;;;;;;10.07;7.00;;;6.10;99.90;;;;;;5065677;27;20424;-71
2022/04/17 02:59:54;;;;;;;10.25;7.25;;;;;;;;;;5081182;27;20454;-71
2022/04/17 03:07:51;;;;;;;11.83;7.87;;;;;;;;;;5070979;27;20820;-71
2022/04/17 03:10:17;;;;;;;10.65;7.60;;;;;;;;;;5063983;27;21685;-70
2022/04/17 03:12:43;;;;;;;11.15;7.60;;;;;;;;;;5069948;28;20424;-71
2022/04/17 03:15:09;;;;;;;9.73;6.95;;;;;;;;;;5071393;28;20404;-71
2022/04/17 03:17:36;;;;;;;10.48;7.47;;;;;;;;;;5049546;28;20451;-71
2022/04/17 03:20:03;;;;;;;10.25;7.88;;;;;;;;;;5061045;27;20421;-71
2022/04/17 03:22:29;;;;;;;11.43;7.40;;;;;;;;;;5068986;28;20437;-71
2022/04/17 03:24:55;;;;;;;15.48;7.70;;;;;;;;;;5067010;27;20427;-71
2022/04/17 03:27:22;;;;;;;10.80;7.88;;;;;;;;;;5068876;28;20424;-71
2022/04/17 03:29:48;;;;;;;10.75;7.90;;;;;;;;;;5066619;27;20915;-71
2022/04/17 03:32:14;;;;;;;10.68;7.80;;;;;;;;;;5071623;28;20452;-71
2022/04/17 03:34:40;;;;;;;11.32;7.97;;;5.10;99.90;;;;;;5046583;27;20438;-69
2022/04/17 03:37:06;;;;;;;13.02;8.27;;;;;;;;;;5070216;27;20528;-68
2022/04/17 03:39:32;;;;;;;12.95;8.18;;;4.80;99.90;;;;;;5059313;28;20455;-68
2022/04/17 03:41:58;;;;;;;11.17;8.27;;;;;;;;;;5072658;28;20434;-68
2022/04/17 03:44:24;;;;;;;12.50;8.23;;;;;;;;;;5070812;28;20431;-68
2022/04/17 03:46:51;;;;;;;12.60;8.23;;;;;;;;;;5043609;27;20419;-68
2022/04/17 03:49:17;;;;;;;10.98;8.20;;;;;;;;;;5067812;27;20423;-68
2022/04/17 03:51:44;;;;;;;11.00;8.48;;;;;;;;;;5068676;27;20461;-68
2022/04/17 03:54:10;;;;;;;11.57;7.68;;;;;;;;;;5069848;27;20447;-69
2022/04/17 03:56:36;;;;;;;13.57;8.13;;;;;;;;;;5054706;27;20426;-71
2022/04/17 03:59:02;;;;;;;11.73;8.20;;;;;;;;;;5090993;27;20476;-71
2022/04/17 04:01:29;;;;;;;11.68;8.27;;;;;;;;;;5072395;27;20414;-70
2022/04/17 04:03:55;;;;;;;11.40;8.13;;;;;;;;;;5065554;27;20425;-71
2022/04/17 04:06:21;;;;;;;10.75;8.18;;;;;;;;;;5075291;28;20423;-71
2022/04/17 04:08:51;;;;;;;12.13;8.73;;;;;;;;;;5067978;27;20911;-71
2022/04/17 04:11:20;;;;;;;12.50;8.40;;;;;;;;;;5053819;27;20425;-71
2022/04/17 04:13:46;;;;;;;13.52;9.07;;;;;;;;;;5073362;28;20420;-71
2022/04/17 04:16:13;;;;;;;12.25;8.85;;;;;;;;;;5072591;27;20487;-71
2022/04/17 04:18:39;;;;;;;13.75;8.82;;;;;;;;;;5069949;27;20437;-71
2022/04/17 04:21:05;;;;;;;12.25;8.57;;;;;;;;;;5075180;28;20416;-71
2022/04/17 04:23:36;;;;;;;11.95;8.27;;;;;;;;;;5072142;27;20563;-71
2022/04/17 04:26:03;;;;;;;11.77;8.55;;;;;;;;;;5073771;28;20449;-71
2022/04/17 04:28:33;;;;;;;13.45;8.32;;;;;;;;;;5068878;27;20408;-71
2022/04/17 04:31:03;;;;;;;12.27;8.65;;;;;;;;;;5050898;27;20424;-69
2022/04/17 04:33:31;;;;;;;13.48;10.10;;;;;;;;;;5072508;28;20404;-72
2022/04/17 04:35:59;;;;;;;11.87;9.30;;;4.40;99.90;;;;;;5052369;27;20425;-69
2022/04/17 04:38:25;;;;;;;12.57;8.88;;;;;;;;;;5068359;27;20967;-69
2022/04/17 04:40:54;;;;;;;11.83;8.53;;;;;;;;;;5073974;27;20566;-69
2022/04/17 04:43:20;;;;;;;12.23;9.07;;;;;;;;;;5072000;27;20934;-69
2022/04/17 04:51:16;;;;;;;14.43;9.27;;;;;;;;;;5069624;28;20443;-69
2022/04/17 04:53:42;;;;;;;11.97;9.10;;;;;;;;;;5073779;28;20492;-69
2022/04/17 04:56:08;;;;;;;12.15;8.15;;;;;;;;;;5065605;27;20430;-69
2022/04/17 04:58:36;;;;;;;12.25;9.48;;;;;;;;;;5087308;27;20402;-69
2022/04/17 05:01:02;;;;;;;12.68;8.55;;;;;;;;;;5066100;27;20423;-68
2022/04/17 05:03:28;;;;;;;11.95;8.55;;;;;;;;;;5072595;27;20426;-69
2022/04/17 05:05:54;;;;;;;13.68;9.10;;;4.30;99.90;;;;;;5062533;27;20422;-69
2022/04/17 05:08:20;;;;;;;13.17;10.03;;;4.50;99.90;;;;;;5073892;28;21305;-69
2022/04/17 05:10:49;;;;;;;11.87;8.80;;;;;;;;;;5070482;27;20420;-68
2022/04/17 05:13:17;;;;;;;12.82;9.40;;;;;;;;;;5070131;27;20424;-68
2022/04/17 05:15:43;;;;;;;13.88;8.93;;;;;;;;;;5070922;27;20419;-70
2022/04/17 05:18:09;;;;;;;13.13;8.70;;;;;;;;;;5067523;27;20779;-69
2022/04/17 05:20:35;;;;;;;12.33;8.73;;;;;;;;;;5074084;28;20408;-67
2022/04/17 05:23:19;;;;;;;11.68;8.50;;;;;;;;;;5071885;28;20439;-68
2022/04/17 05:25:49;;;;;;;14.05;9.25;;;;;;;;;;5066721;28;20515;-69
2022/04/17 05:28:15;;;;;;;11.73;8.50;;;;;;;;;;5066282;27;20420;-69
2022/04/17 05:30:41;;;;;;;12.40;9.05;;;;;;;;;;5052166;27;20464;-68
2022/04/17 05:33:08;;;;;;;12.97;9.93;;;;;;;;;;5072662;27;20548;-69
2022/04/17 05:35:34;;;;;;;13.40;8.98;;;;;;;;;;5054304;27;20475;-69
2022/04/17 05:38:00;;;;;;;12.98;8.98;;;;;;;;;;5076782;28;20460;-68
2022/04/17 05:40:26;;;;;;;12.02;9.02;;;5.40;99.90;;;;;;5078869;28;20420;-68
2022/04/17 05:42:53;;;;;;;13.15;8.85;;;;;;;;;;5069126;27;20871;-69
2022/04/17 05:45:19;;;;;;;12.43;8.70;;;;;;;;;;5067543;27;20425;-69
2022/04/17 05:47:45;;;;;;;11.77;8.65;;;;;;;;;;5072160;28;20444;-69
2022/04/17 05:50:11;;;;;;;11.32;8.82;;;5.80;99.90;;;;;;5054833;27;20415;-69
2022/04/17 05:52:37;;;;;;;11.60;8.57;;;;;;;;;;5071235;27;20934;-69
2022/04/17 05:55:03;;;;;;;11.68;8.93;;;;;;;;;;5066537;28;20416;-69
2022/04/17 05:57:29;;;;;;;11.65;8.68;;;;;;;;;;5051828;27;20418;-68
2022/04/17 05:59:55;;;;;;;13.70;9.00;;;6.00;99.90;;;;;;5100131;27;20911;-69
2022/04/17 06:02:21;;;;;;;12.65;9.20;;;;;;;;;;5050339;28;20433;-69
2022/04/17 06:04:50;;;;;;;13.75;8.93;;;;;;;;;;5044789;28;20483;-69
2022/04/17 06:07:29;;;;;;;12.35;8.88;;;;;;;;;;5049097;28;20420;-69
2022/04/17 06:09:55;;;;;;;11.75;8.82;;;;;;;;;;5039464;28;20433;-69
2022/04/17 06:12:21;;;;;;;13.77;8.95;;;;;;;;;;5048930;27;20420;-70
2022/04/17 06:14:47;;;;;;;14.20;8.98;;;;;;;;;;5045772;27;20493;-69
2022/04/17 06:17:13;;;;;;;11.73;8.60;;;;;;;;;;5044716;27;20501;-69
2022/04/17 06:19:39;;;;;;;11.95;8.55;;;;;;;;;;5049073;27;20429;-69
2022/04/17 06:22:07;;;;;;;13.10;8.85;;;;;;;;;;5044913;27;20505;-69
2022/04/17 06:24:33;;;;;;;12.55;8.68;;;;;;;;;;5050950;28;20441;-69
2022/04/17 06:26:59;;;;;;;12.18;8.52;;;;;;;;;;5046874;27;20422;-69
2022/04/17 06:29:24;;;;;;;12.07;8.80;;;7.20;99.90;;;;;;5049445;27;20452;-69
2022/04/17 06:31:50;;;;;;;11.40;8.63;;;;;;;;;;5033273;28;20591;-69
2022/04/17 06:34:16;;;;;;;11.70;8.32;;;;;;;;;;5044923;27;20447;-69
2022/04/17 06:36:42;;;;;;;11.15;8.43;;;7.60;99.90;;;;;;5082178;27;20443;-69
2022/04/17 06:39:08;;;;;;;12.80;8.25;;;;;;;;;;5045745;27;21016;-69
2022/04/17 06:41:34;;;;;;;12.02;8.25;;;;;;;;;;5051930;28;20449;-69
2022/04/17 06:44:01;;;;;;;11.45;8.50;;;;;;;;;;5041585;27;20437;-69
2022/04/17 06:46:27;;;;;;;11.52;8.80;;;;;;;;;;5050959;27;20410;-69
2022/04/17 06:48:53;;;;;;;11.15;8.43;;;;;;;;;;5048576;27;20864;-68
2022/04/17 06:51:24;;;;;;;11.75;8.30;;;;;;;;;;5050030;28;20429;-69
2022/04/17 06:53:51;;;;;;;11.85;8.20;;;;;;;;;;5048589;28;21016;-69
2022/04/17 06:56:18;;;;;;;14.07;8.52;;;;;;;;;;5048661;27;20939;-69
2022/04/17 06:58:47;;;;;;;11.30;8.15;;;;;;;;;;5050072;28;20426;-69
2022/04/17 07:01:17;;;;;;;10.63;7.72;;;;;;;;;;5047968;27;20434;-67
2022/04/17 07:03:47;;;;;;;9.82;7.18;;;;;;;;;;5048576;28;20429;-69
2022/04/17 07:06:13;;;;;;;12.15;8.27;;;;;;;;;;5046807;28;20530;-67
2022/04/17 07:08:39;;;;;;;12.57;7.72;;;;;;;;;;5047603;28;20448;-68
2022/04/17 07:11:05;;;;;;;9.98;7.45;;;;;;;;;;5046404;27;20480;-68
2022/04/17 07:13:31;;;;;;;12.45;8.38;;;;;;;;;;5046923;27;20838;-68
2022/04/17 07:15:57;;;;;;;11.47;7.80;;;;;;;;;;5048223;27;20425;-68
2022/04/17 07:18:24;;;;;;;11.35;7.82;;;;;;;;;;5046480;28;20418;-68
2022/04/17 07:20:50;;;;;;;10.55;7.50;;;;;;;;;;5047623;28;20409;-68
2022/04/17 07:23:16;;;;;;;9.57;7.55;;;;;;;;;;5048815;28;20445;-68
2022/04/17 07:25:42;;;;;;;11.95;8.10;;;;;;;;;;5050415;28;20452;-68
2022/04/17 07:28:12;;;;;;;9.55;7.53;;;;;;;;;;5052681;28;20570;-68
2022/04/17 07:30:39;;;;;;;10.57;7.82;;;;;;;;;;5047761;27;20882;-68
2022/04/17 07:33:05;;;;;;;10.35;7.20;;;;;;;;;;5053503;28;20417;-68
2022/04/17 07:35:31;;;;;;;11.57;7.90;;;;;;;;;;5049586;27;20513;-68
2022/04/17 07:37:57;;;;;;;11.20;7.25;;;;;;;;;;5048563;28;20426;-68
2022/04/17 07:40:28;;;;;;;11.20;7.40;;;;;;;;;;5049370;28;20448;-68
2022/04/17 07:42:55;;;;;;;11.15;7.28;;;;;;;;;;5045628;27;20480;-68
2022/04/17 07:45:22;;;;;;;9.70;7.65;;;;;;;;;;5048606;27;20431;-68
2022/04/17 07:47:50;;;;;;;10.65;7.60;;;;;;;;;;5044233;27;20441;-69
2022/04/17 07:50:17;;;;;;;9.97;7.67;;;;;;;;;;5051819;27;20542;-69
2022/04/17 07:52:43;;;;;;;10.30;7.20;;;10.80;99.90;;;;;;5045822;27;20446;-69
2022/04/17 07:55:13;;;;;;;10.90;7.65;;;;;;;;;;5051631;28;20948;-68
2022/04/17 07:57:55;;;;;;;11.52;7.38;;;;;;;;;;5053619;27;20433;-68
2022/04/17 08:00:22;;;;;;;10.20;7.30;;;;;;;;;;5044437;27;20427;-68
2022/04/17 08:03:06;;;;;;;11.13;7.80;;;;;;;;;;5052368;27;20441;-69
2022/04/17 08:05:35;;;;;;;10.70;7.28;;;;;;;;;;5072419;27;20439;-69
2022/04/17 08:08:01;;;;;;;9.48;7.10;;;;;;;;;;5074920;28;20443;-69
2022/04/17 08:10:27;;;;;;;9.52;7.30;;;;;;;;;;5065333;27;20429;-68
2022/04/17 08:12:54;;;;;;;9.90;6.85;;;;;;;;;;5070719;28;20419;-68
2022/04/17 08:15:20;;;;;;;10.88;6.68;;;;;;;;;;5038504;27;20863;-68
2022/04/17 08:17:46;;;;;;;13.30;6.93;;;;;;;;;;5069934;27;20416;-68
2022/04/17 08:20:12;;;;;;;9.73;6.88;;;;;;;;;;5065601;27;20408;-68
2022/04/17 08:22:38;;;;;;;9.30;6.60;;;;;;;;;;5048252;27;20440;-68
2022/04/17 08:25:04;;;;;;;9.98;6.78;;;;;;;;;;5070079;27;20428;-69
2022/04/17 08:27:33;;;;;;;9.93;6.72;;;;;;;;;;5067339;27;20420;-67
2022/04/17 08:30:01;;;;;;;8.82;6.20;;;;;;;;;;5067273;27;20462;-69
2022/04/17 08:32:27;;;;;;;8.70;5.82;;;;;;;;;;5061528;28;20429;-68
2022/04/17 08:34:53;;;;;;;9.20;6.20;;;;;;;;;;5064365;27;20586;-68
2022/04/17 08:37:19;;;;;;;8.35;5.85;;;;;;;;;;5070215;27;20435;-69
2022/04/17 08:39:46;;;;;;;8.68;5.75;;;;;;;;;;5069122;27;20435;-68
2022/04/17 08:42:12;;;;;;;8.68;6.00;;;;;;;;;;5066453;27;20440;-69
2022/04/17 08:44:38;;;;;;;8.07;5.85;;;;;;;;;;5071912;28;20439;-68
2022/04/17 08:47:04;;;;;;;7.72;5.40;;;;;;;;;;5068460;27;20420;-69
2022/04/17 08:49:31;;;;;;;8.05;5.78;;;;;;;;;;5063672;27;21060;-69
2022/04/17 08:51:57;;;;;;;9.20;5.78;;;;;;;;;;5059968;28;20474;-68
2022/04/17 08:54:26;;;;;;;7.50;5.28;;;;;;;;;;5073502;28;20424;-68
2022/04/17 08:56:52;;;;;;;9.27;5.40;;;;;;;;;;5073283;27;20905;-68
2022/04/17 08:59:18;;;;;;;8.80;5.40;;;;;;;;;;5065648;27;20517;-69
2022/04/17 09:01:45;;;;;;;7.95;5.63;;;;;;;;;;5064024;27;20450;-67
2022/04/17 09:04:12;;;;;;;8.07;5.47;;;;;;;;;;5067425;27;20423;-68
2022/04/17 09:06:39;;;;;;;8.13;5.68;;;;;;;;;;5073685;28;20404;-69
2022/04/17 09:09:06;;;;;;;10.73;6.43;;;;;;;;;;5059097;28;20492;-68
2022/04/17 09:11:33;;;;;;;8.25;5.70;;;;;;;;;;5052515;28;20420;-67
2022/04/17 09:14:01;;;;;;;8.40;5.20;;;;;;;;;;5064666;28;20434;-68
2022/04/17 09:16:49;;;;;;;7.25;5.30;;;;;;;;;;5051935;28;20495;-68
2022/04/17 09:19:17;;;;;;;8.23;5.50;;;;;;;;;;5041720;28;20539;-66
2022/04/17 09:21:43;;;;;;;8.75;5.32;;;;;;;;;;5069728;28;20465;-67
2022/04/17 09:24:13;;;;;;;9.25;5.68;;;;;;;;;;5067045;28;20548;-69
2022/04/17 09:26:43;;;;;;;7.68;5.78;;;;;;;;;;5068585;28;20423;-69
2022/04/17 09:29:23;;;;;;;9.32;5.78;;;;;;;;;;5074003;27;20424;-73
2022/04/17 09:31:59;;;;;;;8.90;5.63;;;;;;;;;;5064728;28;20450;-67
2022/04/17 09:34:26;;;;;;;9.40;6.30;;;;;;;;;;5065951;28;20428;-70
2022/04/17 09:37:01;;;;;;;7.05;4.95;;;;;;;;;;5053772;28;20455;-71
2022/04/17 09:39:34;;;;;;;6.75;4.85;;;;;;;;;;5054243;28;20428;-70
2022/04/17 09:42:05;;;;;;;8.20;5.10;;;;;;;;;;5069244;28;21235;-67
2022/04/17 09:44:47;;;;;;;9.50;5.75;;;14.90;99.90;;;;;;5062728;28;20502;-65
2022/04/17 09:47:16;;;;;;;8.90;5.53;;;;;;;;;;5061305;28;20476;-66
2022/04/17 09:50:01;;;;;;;7.00;4.88;;;;;;;;;;5071614;28;20432;-65
2022/04/17 09:52:31;;;;;;;7.97;5.68;;;;;;;;;;5068833;28;20430;-65
2022/04/17 09:54:58;;;;;;;6.55;4.97;;;;;;;;;;5067847;28;20423;-64
2022/04/17 09:57:33;;;;;;;7.05;5.03;;;;;;;;;;5066647;27;20433;-63
2022/04/17 10:00:12;;;;;;;6.53;4.72;;;;;;;;;;5087762;27;20433;-64
2022/04/17 10:02:39;;;;;;;6.85;4.85;;;;;;;;;;5062348;27;20510;-65
2022/04/17 10:05:07;;;;;;;9.50;4.72;;;;;;;;;;5071043;27;20488;-65
2022/04/17 10:07:33;;;;;;;7.28;5.00;;;;;;;;;;5070351;28;20412;-65
2022/04/17 10:09:59;;;;;;;8.02;5.13;;;;;;;;;;5067833;28;20428;-65
2022/04/17 10:12:26;;;;;;;6.78;5.05;;;;;;;;;;5066739;28;20412;-66
2022/04/17 10:14:52;;;;;;;7.70;5.00;;;;;;;;;;5069576;28;20441;-65
2022/04/17 10:17:22;;;;;;;7.27;4.57;;;;;;;;;;5065280;28;20547;-66
2022/04/17 10:19:51;;;;;;;5.75;4.38;;;;;;;;;;5070427;28;20452;-66
2022/04/17 10:22:20;;;;;;;7.90;4.68;;;;;;;;;;5068306;28;20435;-65
2022/04/17 10:24:54;;;;;;;6.88;4.40;;;;;;;;;;5072459;28;20416;-66
2022/04/17 10:27:24;;;;;;;7.18;4.72;;;;;;;;;;5057209;28;20418;-65
2022/04/17 10:29:54;;;;;;;7.72;5.25;;;;;;;;;;5060646;28;20417;-65
2022/04/17 10:32:33;;;;;;;9.82;4.97;;;;;;;;;;5065928;28;21056;-64
2022/04/17 10:35:02;;;;;;;6.87;4.90;;;;;;;;;;5064848;28;20436;-64
2022/04/17 10:38:07;;;;;;;6.72;4.65;;;;;;;;;;5049322;27;20763;-64
2022/04/17 10:40:33;;;;;;;7.20;5.05;;;;;;;;;;4985219;28;20972;-64
2022/04/17 10:43:00;;;;;;;8.13;5.18;;;;;;;;;;4979058;28;20452;-62
2022/04/17 10:45:31;;;;;;;8.13;5.35;;;;;;;;;;5027251;28;20430;-62
2022/04/17 10:48:06;;;;;;;6.13;4.50;;;;;;;;;;5061753;27;20419;-62
2022/04/17 10:50:51;;;;;;;6.50;4.13;;;;;;;;;;5057111;28;20424;-61
2022/04/17 10:53:27;;;;;;;6.85;3.95;;;;;;;;;;5059294;28;20423;-61
2022/04/17 10:56:06;;;;;;;5.97;4.07;;;;;;;;;;5067268;28;20435;-62
2022/04/17 10:58:45;;;;;;;5.15;3.67;;;;;;;;;;5085697;27;20552;-64
2022/04/17 11:01:12;;;;;;;6.88;4.35;;;;;;;;;;5061525;28;20477;-64
2022/04/17 11:03:38;;;;;;;6.15;4.47;;;;;;;;;;5067326;28;20449;-64
2022/04/17 11:06:30;;;;;;;6.03;3.80;;;;;;;;;;5069682;28;20431;-64
2022/04/17 11:09:03;;;;;;;5.73;4.53;;;;;;;;;;5059007;28;20435;-67
2022/04/17 11:11:39;;;;;;;6.63;4.55;;;;;;;;;;5061404;28;20429;-67
2022/04/17 11:14:16;;;;;;;5.57;3.90;;;;;;;;;;5069039;28;20586;-66
2022/04/17 11:16:48;;;;;;;5.70;4.07;;;;;;;;;;5058045;28;20431;-66
2022/04/17 11:19:16;;;;;;;6.13;4.07;;;;;;;;;;5054118;28;20432;-66
2022/04/17 11:21:47;;;;;;;5.78;4.05;;;;;;;;;;5062999;28;20435;-66
2022/04/17 11:24:13;;;;;;;6.45;4.10;;;;;;;;;;5066720;28;20542;-66
2022/04/17 11:26:54;;;;;;;5.53;3.63;;;;;;;;;;5069107;28;20466;-66
2022/04/17 11:29:39;;;;;;;9.95;4.30;;;;;;;;;;5065551;28;20422;-66
2022/04/17 11:32:17;;;;;;;6.80;4.10;;;;;;;;;;5062515;28;20427;-66
2022/04/17 11:34:52;;;;;;;7.38;3.70;;;;;;;;;;5061274;28;20425;-66
2022/04/17 11:37:18;;;;;;;4.55;3.22;;;;;;;;;;5068826;27;20418;-65
2022/04/17 11:39:45;;;;;;;4.70;3.50;;;;;;;;;;5050735;27;20420;-64
2022/04/17 11:42:11;;;;;;;7.25;3.63;;;;;;;;;;5068531;28;20728;-64
2022/04/17 11:44:41;;;;;;;5.53;3.50;;;17.80;82.20;;;;;;5067474;28;20419;-65
2022/04/17 11:47:07;;;;;;;9.90;3.45;;;;;;;;;;5068830;28;20426;-65
2022/04/17 11:49:39;;;;;;;6.68;3.22;;;;;;;;;;5069561;28;20416;-62
2022/04/17 11:52:14;;;;;;;5.22;3.45;;;17.60;80.70;;;;;;5067112;27;20435;-61
2022/04/17 11:54:41;;;;;;;6.85;3.75;;;;;;;;;;5066353;28;20473;-64
2022/04/17 11:57:07;;;;;;;5.25;3.95;;;17.60;82.40;;;;;;5069285;28;20419;-63
2022/04/17 11:59:56;;;;;;;4.95;3.85;;;17.60;82.90;;;;;;5069618;27;21035;-64
2022/04/17 12:02:26;;;;;;;6.30;3.90;;;;;;;;;;5067313;28;20488;-63
2022/04/17 12:04:54;;;;;;;5.82;4.03;;;17.20;82.90;;;;;;5058910;28;20433;-64
2022/04/17 12:07:21;;;;;;;8.95;3.53;;;;;;;;;;5072265;28;20488;-64
2022/04/17 12:09:48;;;;;;;9.77;3.85;;;;;;;;;;5069821;28;20408;-64
2022/04/17 12:12:16;;;;;;;5.65;3.58;;;18.00;82.10;;;;;;5066618;27;20422;-64
2022/04/17 12:14:42;;;;;;;4.90;3.88;;;;;;;;;;5068299;28;20443;-64
2022/04/17 12:17:08;;;;;;;5.68;3.80;;;17.90;79.40;;;;;;5070284;28;20416;-65
2022/04/17 12:19:34;;;;;;;4.67;3.50;;;17.70;81.50;;;;;;5073347;28;20414;-63
2022/04/17 12:22:05;;;;;;;5.65;3.60;;;17.60;82.10;;;;;;5067525;28;20941;-64
2022/04/17 12:24:31;;;;;;;6.10;3.53;;;;;;;;;;5050901;27;20874;-64
2022/04/17 12:26:57;;;;;;;5.93;3.75;;;;;;;;;;5070074;28;20430;-64
2022/04/17 12:29:23;;;;;;;4.80;3.50;;;;;;;;;;5066331;28;20427;-63
2022/04/17 12:31:49;;;;;;;5.22;3.90;;;;;;;;;;5074606;28;20766;-63
2022/04/17 12:34:19;;;;;;;5.45;3.70;;;;;;;;;;5067894;28;20428;-64
2022/04/17 12:36:49;;;;;;;6.10;3.67;;;17.80;81.30;;;;;;5067621;27;20521;-63
2022/04/17 12:39:15;;;;;;;5.00;3.55;;;17.90;82.80;;;;;;5110808;27;20420;-64
2022/04/17 12:41:43;;;;;;;5.13;3.30;;;18.40;79.80;;;;;;5071252;27;20419;-64
2022/04/17 12:44:12;;;;;;;5.57;3.20;;;;;;;;;;5069314;28;20408;-63
2022/04/17 12:46:42;;;;;;;5.65;3.70;;;18.00;79.80;;;;;;5070875;28;20423;-64
2022/04/17 12:49:24;;;;;;;5.90;3.70;;;;;;;;;;5072871;28;20527;-61
2022/04/17 12:51:57;;;;;;;5.18;3.78;;;18.50;81.00;;;;;;5066481;27;20830;-62
2022/04/17 12:54:31;;;;;;;8.60;3.88;;;18.60;79.40;;;;;;5077913;28;20465;-64
2022/04/17 12:57:01;;;;;;;5.15;3.55;;;;;;;;;;5048526;27;21017;-64
2022/04/17 12:59:27;;;;;;;4.43;3.60;;;;;;;;;;5049211;27;20427;-64
2022/04/17 13:01:53;;;;;;;5.45;3.72;;;18.10;77.90;;;;;;5069875;27;20435;-64
2022/04/17 13:04:20;;;;;;;5.00;3.77;;;18.40;79.40;;;;;;5068743;27;20468;-64
2022/04/17 13:06:48;;;;;;;8.18;4.10;;;18.90;79.80;;;;;;5048057;28;20453;-63
2022/04/17 13:09:18;;;;;;;5.68;4.03;;;18.50;79.10;;;;;;5065634;28;20468;-64
2022/04/17 13:11:53;;;;;;;5.93;3.87;;;18.60;79.90;;;;;;5052728;27;20756;-64
2022/04/17 13:14:19;;;;;;;6.03;3.88;;;18.00;81.30;;;;;;5069687;27;20432;-64
2022/04/17 13:17:02;;;;;;;5.10;3.70;;;18.20;79.90;;;;;;5072140;28;20436;-62
2022/04/17 13:19:29;;;;;;;5.63;4.03;;;18.30;81.30;;;;;;5074512;27;20426;-62
2022/04/17 13:21:56;;;;;;;6.95;4.57;;;18.10;81.30;;;;;;5068679;28;20435;-62
2022/04/17 13:24:25;;;;;;;7.75;4.50;;;18.10;83.00;;;;;;5074007;28;20412;-62
2022/04/17 13:26:52;;;;;;;7.85;4.40;;;18.40;81.60;;;;;;5068524;27;20435;-63
2022/04/17 13:29:18;;;;;;;6.40;4.57;;;18.40;81.70;;;;;;5069147;28;20480;-64
2022/04/17 13:31:44;;;;;;;10.50;4.53;;;;;;;;;;5048902;27;20423;-63
2022/04/17 13:34:10;;;;;;;6.97;4.55;;;17.70;82.10;;;;;;5064286;28;20445;-63
2022/04/17 13:36:36;;;;;;;5.72;4.53;;;;;;;;;;5070684;27;20484;-63
2022/04/17 13:39:02;;;;;;;6.32;4.57;;;17.30;82.20;;;;;;5072321;28;20412;-64
2022/04/17 13:41:28;;;;;;;6.90;4.53;;;17.60;83.30;;;;;;5067766;28;20422;-63
2022/04/17 13:43:55;;;;;;;10.48;4.88;;;;;;;;;;5068489;28;20827;-63
2022/04/17 13:46:23;;;;;;;7.43;4.60;;;17.50;81.70;;;;;;5071961;28;20416;-63
2022/04/17 13:48:49;;;;;;;6.53;4.80;;;17.40;82.90;;;;;;5068451;27;20418;-64
2022/04/17 13:51:15;;;;;;;7.20;5.03;;;;;;;;;;5053809;27;20620;-64
2022/04/17 13:53:41;;;;;;;7.40;4.80;;;;;;;;;;5066309;28;20416;-63
2022/04/17 13:56:08;;;;;;;7.57;5.18;;;;;;;;;;5046914;27;20507;-63
2022/04/17 13:58:34;;;;;;;7.85;5.10;;;;;;;;;;5070750;27;20436;-63
2022/04/17 14:01:00;;;;;;;7.47;5.07;;;;;;;;;;5071712;28;20427;-63
2022/04/17 14:03:26;;;;;;;7.53;5.40;;;;;;;;;;5065825;27;20494;-63
2022/04/17 14:05:53;;;;;;;7.47;5.53;;;;;;;;;;5070025;27;20431;-63
2022/04/17 14:08:19;;;;;;;7.82;5.50;;;;;;;;;;5063388;27;20433;-63
2022/04/17 14:10:46;;;;;;;7.18;5.70;;;;;;;;;;5082751;27;20441;-63
2022/04/17 14:13:13;;;;;;;7.30;4.90;;;;;;;;;;5094881;27;20775;-63
2022/04/17 14:15:39;;;;;;;7.57;5.57;;;;;;;;;;5051769;28;20439;-63
2022/04/17 14:18:05;;;;;;;8.02;5.65;;;;;;;;;;5041541;27;20416;-63
2022/04/17 14:20:32;;;;;;;8.77;5.22;;;;;;;;;;5071389;27;20415;-63
2022/04/17 14:22:58;;;;;;;7.30;5.20;;;;;;;;;;5070311;28;20502;-62
2022/04/17 14:25:24;;;;;;;6.40;4.90;;;;;;;;;;5071263;28;20416;-63
2022/04/17 14:27:50;;;;;;;12.38;5.45;;;;;;;;;;5063691;27;20424;-63
2022/04/17 14:30:16;;;;;;;9.45;5.32;;;;;;;;;;5064907;27;20419;-63
2022/04/17 14:32:42;;;;;;;6.53;5.20;;;;;;;;;;5051932;28;20508;-63
2022/04/17 14:35:09;;;;;;;8.93;5.40;;;;;;;;;;5068206;27;20440;-63
2022/04/17 14:37:35;;;;;;;8.05;5.13;;;;;;;;;;5071070;27;20819;-64